createdAt,value
2023-05-17T00:00:32.193Z,20.40
2023-05-17T00:03:15.454Z,21.10
2023-05-17T00:05:42.983Z,24.90
2023-05-17T00:08:11.203Z,19.00
2023-05-17T00:10:38.917Z,17.90
2023-05-17T00:13:06.382Z,20.70
2023-05-17T00:15:33.937Z,16.40
2023-05-17T00:18:01.667Z,24.10
2023-05-17T00:20:30.321Z,21.60
2023-05-17T00:22:57.991Z,20.90
2023-05-17T00:25:25.549Z,22.30
2023-05-17T00:27:53.247Z,20.00
2023-05-17T00:30:20.818Z,21.10
2023-05-17T00:32:48.473Z,23.40
2023-05-17T00:35:16.333Z,45.60
2023-05-17T00:37:47.804Z,47.00
2023-05-17T00:40:16.246Z,28.60
2023-05-17T00:42:43.806Z,40.30
2023-05-17T00:45:11.415Z,42.40
2023-05-17T00:47:39.438Z,29.20
2023-05-17T00:50:07.600Z,25.80
2023-05-17T00:52:36.477Z,17.20
2023-05-17T00:55:04.408Z,20.90
2023-05-17T00:57:32.160Z,20.00
2023-05-17T00:59:59.788Z,22.20
2023-05-17T01:02:27.426Z,17.70
2023-05-17T01:04:55.409Z,29.70
2023-05-17T01:07:23.923Z,20.60
2023-05-17T01:09:51.727Z,31.10
2023-05-17T01:12:46.386Z,17.70
2023-05-17T01:15:23.032Z,15.50
2023-05-17T01:18:04.993Z,22.90
2023-05-17T01:20:44.108Z,18.50
2023-05-17T01:23:32.355Z,15.80
2023-05-17T01:26:15.874Z,15.50
2023-05-17T01:28:52.264Z,13.80
2023-05-17T01:31:20.910Z,14.10
2023-05-17T01:33:48.714Z,16.90
2023-05-17T01:36:16.388Z,16.80
2023-05-17T01:38:43.933Z,22.20
2023-05-17T01:41:23.858Z,16.90
2023-05-17T01:43:55.529Z,14.70
2023-05-17T01:46:39.914Z,16.90
2023-05-17T01:49:35.123Z,14.00
2023-05-17T01:52:18.631Z,21.90
2023-05-17T01:55:18.542Z,14.70
2023-05-17T01:57:49.798Z,15.70
2023-05-17T02:00:19.377Z,16.40
2023-05-17T02:02:49.893Z,17.10
2023-05-17T02:05:17.607Z,21.20
2023-05-17T02:07:45.826Z,18.80
2023-05-17T02:10:13.630Z,12.80
2023-05-17T02:12:42.486Z,18.70
2023-05-17T02:15:12.210Z,22.90
2023-05-17T02:17:40.757Z,16.60
2023-05-17T02:20:10.538Z,19.50
2023-05-17T02:22:38.051Z,17.60
2023-05-17T02:25:06.794Z,16.20
2023-05-17T02:27:34.372Z,18.70
2023-05-17T02:30:02.338Z,11.30
2023-05-17T02:32:31.371Z,28.00
2023-05-17T02:34:59.479Z,42.20
2023-05-17T02:37:26.966Z,21.10
2023-05-17T02:39:54.490Z,45.50
2023-05-17T02:42:22.046Z,25.30
2023-05-17T02:44:52.941Z,19.90
2023-05-17T02:47:21.327Z,20.50
2023-05-17T02:49:49.062Z,20.60
2023-05-17T02:52:16.624Z,15.30
2023-05-17T02:54:44.195Z,15.90
2023-05-17T02:57:12.105Z,13.40
2023-05-17T02:59:39.584Z,12.80
2023-05-17T03:02:07.287Z,12.80
2023-05-17T03:04:34.929Z,13.20
2023-05-17T03:07:03.093Z,16.70
2023-05-17T03:09:31.841Z,14.80
2023-05-17T03:11:59.485Z,13.40
2023-05-17T03:14:26.935Z,14.20
2023-05-17T03:16:54.423Z,13.20
2023-05-17T03:19:22.016Z,13.10
2023-05-17T03:21:49.658Z,13.30
2023-05-17T03:24:17.207Z,13.20
2023-05-17T03:26:44.677Z,14.10
2023-05-17T03:29:12.174Z,11.40
2023-05-17T03:31:40.459Z,15.60
2023-05-17T03:34:07.989Z,12.80
2023-05-17T03:36:35.756Z,11.10
2023-05-17T03:39:04.476Z,13.80
2023-05-17T03:41:32.171Z,12.20
2023-05-17T03:44:00.075Z,24.90
2023-05-17T03:46:27.587Z,13.10
2023-05-17T03:48:55.263Z,15.20
2023-05-17T03:51:22.963Z,17.90
2023-05-17T03:53:58.354Z,12.30
2023-05-17T03:56:26.187Z,12.20
2023-05-17T03:58:53.758Z,13.50
2023-05-17T04:01:21.242Z,13.90
2023-05-17T04:03:48.870Z,12.10
2023-05-17T04:06:16.595Z,13.00
2023-05-17T04:08:44.309Z,11.30
2023-05-17T04:11:14.187Z,13.40
2023-05-17T04:13:42.628Z,12.40
2023-05-17T04:16:10.745Z,11.40
2023-05-17T04:18:39.041Z,17.00
2023-05-17T04:21:06.952Z,12.90
2023-05-17T04:23:35.264Z,11.40
2023-05-17T04:26:04.738Z,13.00
2023-05-17T04:28:35.086Z,11.20
2023-05-17T04:31:06.786Z,14.10
2023-05-17T04:33:34.711Z,18.30
2023-05-17T04:36:04.158Z,15.70
2023-05-17T04:38:31.745Z,12.70
2023-05-17T04:41:07.948Z,10.30
2023-05-17T04:43:36.428Z,10.90
2023-05-17T04:46:05.866Z,12.60
2023-05-17T04:48:33.945Z,11.50
2023-05-17T04:51:04.373Z,11.10
2023-05-17T04:53:32.298Z,9.10
2023-05-17T04:55:59.902Z,10.50
2023-05-17T04:58:27.406Z,13.30
2023-05-17T05:00:54.952Z,11.00
2023-05-17T05:03:23.309Z,12.90
2023-05-17T05:05:51.185Z,18.30
2023-05-17T05:08:18.651Z,21.50
2023-05-17T05:10:46.380Z,13.10
2023-05-17T05:13:14.456Z,16.20
2023-05-17T05:15:41.893Z,11.40
2023-05-17T05:18:09.485Z,16.60
2023-05-17T05:20:37.154Z,19.70
2023-05-17T05:23:06.273Z,11.90
2023-05-17T05:25:34.350Z,32.70
2023-05-17T05:28:01.922Z,18.80
2023-05-17T05:30:29.681Z,17.00
2023-05-17T05:32:57.367Z,13.20
2023-05-17T05:35:30.189Z,11.50
2023-05-17T05:37:59.753Z,21.80
2023-05-17T05:40:27.937Z,11.60
2023-05-17T05:42:57.348Z,11.70
2023-05-17T05:45:25.141Z,10.10
2023-05-17T05:47:56.289Z,11.50
2023-05-17T05:50:25.603Z,41.50
2023-05-17T05:52:57.975Z,88.30
2023-05-17T05:55:42.351Z,22.80
2023-05-17T05:58:28.602Z,13.40
2023-05-17T06:00:59.897Z,19.70
2023-05-17T06:03:38.755Z,17.90
2023-05-17T06:06:11.781Z,12.20
2023-05-17T06:08:39.849Z,26.90
2023-05-17T06:11:07.602Z,37.20
2023-05-17T06:13:35.271Z,20.50
2023-05-17T06:16:03.731Z,57.40
2023-05-17T06:18:31.522Z,27.00
2023-05-17T06:21:09.575Z,15.90
2023-05-17T06:23:37.254Z,20.50
2023-05-17T06:26:09.267Z,31.10
2023-05-17T06:28:38.029Z,26.40
2023-05-17T06:31:08.210Z,21.50
2023-05-17T06:33:35.818Z,17.90
2023-05-17T06:36:03.801Z,21.50
2023-05-17T06:38:31.417Z,21.80
2023-05-17T06:40:59.002Z,25.50
2023-05-17T06:43:26.705Z,44.10
2023-05-17T06:45:54.389Z,22.90
2023-05-17T06:48:23.217Z,19.00
2023-05-17T06:50:53.889Z,15.50
2023-05-17T06:53:21.836Z,26.60
2023-05-17T06:55:49.990Z,20.40
2023-05-17T06:58:17.703Z,25.00
2023-05-17T07:00:48.196Z,17.70
2023-05-17T07:03:16.099Z,14.40
2023-05-17T07:05:43.882Z,14.00
2023-05-17T07:08:11.414Z,14.40
2023-05-17T07:10:38.916Z,14.80
2023-05-17T07:13:06.492Z,15.20
2023-05-17T07:15:34.099Z,23.40
2023-05-17T07:18:01.920Z,19.80
2023-05-17T07:20:29.772Z,12.00
2023-05-17T07:22:57.329Z,13.30
2023-05-17T07:25:25.020Z,11.80
2023-05-17T07:27:52.526Z,12.40
2023-05-17T07:30:20.360Z,13.20
2023-05-17T07:32:47.902Z,20.90
2023-05-17T07:35:15.872Z,12.60
2023-05-17T07:37:43.708Z,15.50
2023-05-17T07:40:11.898Z,22.70
2023-05-17T07:42:40.813Z,18.10
2023-05-17T07:45:09.044Z,26.40
2023-05-17T07:47:36.792Z,16.40
2023-05-17T07:50:05.751Z,14.40
2023-05-17T07:52:33.322Z,15.30
2023-05-17T07:55:01.368Z,12.40
2023-05-17T07:57:29.873Z,8.50
2023-05-17T07:59:57.539Z,23.40
2023-05-17T08:02:25.050Z,21.50
2023-05-17T08:04:52.815Z,14.20
2023-05-17T08:07:21.896Z,17.60
2023-05-17T08:09:49.582Z,19.20
2023-05-17T08:12:17.736Z,10.20
2023-05-17T08:14:45.789Z,10.60
2023-05-17T08:17:14.315Z,17.10
2023-05-17T08:19:42.749Z,20.50
2023-05-17T08:22:11.298Z,14.00
2023-05-17T08:24:39.979Z,13.40
2023-05-17T08:27:07.852Z,11.30
2023-05-17T08:29:37.159Z,11.50
2023-05-17T08:32:07.779Z,15.40
2023-05-17T08:34:36.687Z,12.60
2023-05-17T08:37:04.521Z,12.20
2023-05-17T08:39:32.512Z,26.40
2023-05-17T08:42:02.464Z,14.20
2023-05-17T08:44:30.133Z,15.30
2023-05-17T08:47:00.416Z,11.90
2023-05-17T08:49:30.631Z,13.90
2023-05-17T08:52:00.670Z,14.20
2023-05-17T08:54:29.009Z,19.50
2023-05-17T08:57:00.544Z,11.80
2023-05-17T08:59:33.860Z,13.00
2023-05-17T09:02:02.260Z,12.50
2023-05-17T09:04:33.140Z,12.40
2023-05-17T09:07:00.881Z,10.10
2023-05-17T09:09:28.683Z,10.20
2023-05-17T09:11:56.499Z,12.00
2023-05-17T09:14:24.049Z,10.60
2023-05-17T09:16:59.914Z,9.90
2023-05-17T09:19:30.786Z,11.60
2023-05-17T09:22:01.079Z,9.80
2023-05-17T09:24:30.459Z,12.10
2023-05-17T09:27:03.235Z,12.20
2023-05-17T09:29:32.577Z,12.80
2023-05-17T09:32:20.460Z,8.60
2023-05-17T09:34:48.699Z,10.80
2023-05-17T09:37:19.826Z,11.40
2023-05-17T09:39:48.254Z,10.60
2023-05-17T09:42:17.087Z,11.00
2023-05-17T09:44:49.849Z,13.90
2023-05-17T09:47:28.749Z,14.20
2023-05-17T09:50:00.335Z,19.50
2023-05-17T09:52:35.137Z,17.70
2023-05-17T09:55:03.091Z,13.60
2023-05-17T09:57:37.866Z,14.10
2023-05-17T10:00:11.833Z,13.40
2023-05-17T10:02:42.295Z,11.70
2023-05-17T10:05:12.309Z,11.60
2023-05-17T10:07:42.035Z,12.50
2023-05-17T10:10:10.689Z,10.20
2023-05-17T10:12:40.897Z,11.10
2023-05-17T10:15:09.219Z,16.60
2023-05-17T10:17:44.673Z,9.50
2023-05-17T10:20:15.505Z,12.00
2023-05-17T10:22:43.694Z,9.20
2023-05-17T10:25:12.519Z,7.90
2023-05-17T10:27:40.320Z,10.80
2023-05-17T10:30:09.955Z,16.60
2023-05-17T10:32:37.888Z,11.70
2023-05-17T10:35:11.213Z,11.40
2023-05-17T10:37:44.024Z,9.10
2023-05-17T10:40:13.708Z,9.30
2023-05-17T10:42:53.808Z,8.60
2023-05-17T10:45:25.514Z,12.20
2023-05-17T10:48:01.459Z,11.20
2023-05-17T10:50:29.854Z,9.90
2023-05-17T10:52:59.385Z,9.50
2023-05-17T10:55:45.039Z,9.90
2023-05-17T10:58:19.518Z,16.60
2023-05-17T11:00:55.618Z,9.60
2023-05-17T11:03:32.587Z,11.00
2023-05-17T11:06:25.399Z,15.00
2023-05-17T11:09:18.689Z,10.60
2023-05-17T11:12:06.671Z,14.90
2023-05-17T11:14:57.397Z,9.40
2023-05-17T11:20:03.523Z,10.30
2023-05-17T11:22:43.191Z,17.00
2023-05-17T11:25:16.259Z,10.40
2023-05-17T11:27:52.836Z,11.60
2023-05-17T11:30:29.874Z,16.80
2023-05-17T11:33:11.128Z,14.40
2023-05-17T11:35:50.608Z,13.10
2023-05-17T11:38:27.085Z,14.10
2023-05-17T11:40:56.757Z,13.10
2023-05-17T11:43:27.438Z,9.00
2023-05-17T11:45:58.283Z,14.60
2023-05-17T11:48:27.069Z,11.20
2023-05-17T11:50:56.613Z,12.80
2023-05-17T11:53:27.348Z,8.30
2023-05-17T11:55:56.269Z,16.20
2023-05-17T11:58:27.006Z,16.00
2023-05-17T12:00:56.320Z,13.40
2023-05-17T12:03:37.846Z,13.20
2023-05-17T12:06:09.719Z,16.50
2023-05-17T12:08:40.070Z,17.80
2023-05-17T12:11:07.939Z,13.20
2023-05-17T12:13:35.999Z,13.70
2023-05-17T12:16:07.227Z,10.70
2023-05-17T12:18:39.588Z,9.60
2023-05-17T12:21:13.329Z,11.80
2023-05-17T12:23:43.984Z,14.10
2023-05-17T12:26:16.042Z,10.00
2023-05-17T12:29:14.349Z,11.90
2023-05-17T12:31:53.145Z,15.10
2023-05-17T12:34:22.104Z,14.20
2023-05-17T12:36:50.530Z,12.30
2023-05-17T12:39:23.618Z,10.40
2023-05-17T12:41:52.725Z,14.30
2023-05-17T12:44:22.775Z,10.80
2023-05-17T12:46:54.010Z,18.30
2023-05-17T12:49:22.086Z,16.00
2023-05-17T12:51:50.528Z,10.60
2023-05-17T12:54:24.083Z,13.00
2023-05-17T12:56:55.074Z,11.50
2023-05-17T12:59:27.348Z,10.70
2023-05-17T13:01:58.653Z,14.00
2023-05-17T13:04:36.852Z,14.60
2023-05-17T13:07:05.646Z,11.20
2023-05-17T13:09:34.543Z,10.60
2023-05-17T13:12:07.575Z,11.70
2023-05-17T13:14:43.449Z,18.00
2023-05-17T13:17:20.994Z,10.20
2023-05-17T13:19:48.728Z,15.60
2023-05-17T13:22:16.443Z,12.00
2023-05-17T13:24:45.088Z,21.80
2023-05-17T13:27:12.975Z,13.80
2023-05-17T13:29:43.967Z,11.70
2023-05-17T13:32:13.586Z,11.00
2023-05-17T13:34:41.588Z,10.40
2023-05-17T13:37:11.923Z,16.00
2023-05-17T13:39:41.035Z,18.50
2023-05-17T13:42:09.600Z,17.70
2023-05-17T13:44:38.212Z,12.60
2023-05-17T13:47:06.153Z,17.00
2023-05-17T13:49:33.811Z,12.40
2023-05-17T13:52:01.458Z,17.50
2023-05-17T13:54:29.112Z,13.90
2023-05-17T13:56:57.734Z,18.30
2023-05-17T13:59:26.051Z,15.40
2023-05-17T14:01:53.764Z,14.00
2023-05-17T14:04:21.464Z,14.90
2023-05-17T14:06:50.712Z,14.60
2023-05-17T14:09:21.585Z,13.00
2023-05-17T14:11:49.095Z,26.80
2023-05-17T14:14:16.702Z,12.40
2023-05-17T14:16:44.293Z,14.50
2023-05-17T14:19:11.816Z,13.00
2023-05-17T14:21:39.610Z,13.80
2023-05-17T14:24:07.193Z,12.20
2023-05-17T14:26:34.937Z,11.60
2023-05-17T14:29:03.092Z,15.90
2023-05-17T14:31:32.321Z,10.90
2023-05-17T14:34:02.168Z,17.50
2023-05-17T14:36:29.737Z,12.60
2023-05-17T14:38:57.202Z,14.70
2023-05-17T14:41:24.707Z,16.00
2023-05-17T14:43:52.255Z,12.70
2023-05-17T14:46:19.944Z,16.20
2023-05-17T14:48:47.596Z,13.50
2023-05-17T14:51:15.298Z,14.10
2023-05-17T14:53:43.051Z,20.00
2023-05-17T14:56:10.595Z,18.70
2023-05-17T14:58:38.112Z,14.10
2023-05-17T15:01:09.336Z,213.00
2023-05-17T15:03:37.522Z,215.40
2023-05-17T15:06:08.811Z,84.40
2023-05-17T15:08:39.606Z,51.80
2023-05-17T15:11:07.509Z,70.40
2023-05-17T15:13:35.114Z,18.10
2023-05-17T15:16:04.148Z,15.90
2023-05-17T15:18:31.953Z,90.00
2023-05-17T15:20:59.731Z,157.40
2023-05-17T15:23:27.301Z,104.40
2023-05-17T15:25:54.797Z,34.50
2023-05-17T15:28:23.846Z,69.70
2023-05-17T15:31:03.370Z,19.70
2023-05-17T15:33:32.160Z,14.70
2023-05-17T15:36:00.654Z,19.20
2023-05-17T15:38:28.294Z,26.50
2023-05-17T15:41:04.248Z,25.40
2023-05-17T15:43:33.880Z,25.10
2023-05-17T15:46:01.855Z,27.70
2023-05-17T15:48:29.970Z,69.00
2023-05-17T15:50:58.474Z,56.90
2023-05-17T15:53:27.625Z,28.70
2023-05-17T15:55:55.894Z,20.40
2023-05-17T15:58:33.638Z,24.60
2023-05-17T16:01:05.603Z,23.90
2023-05-17T16:03:34.038Z,43.20
2023-05-17T16:06:09.691Z,15.80
2023-05-17T16:08:37.404Z,23.20
2023-05-17T16:11:06.945Z,23.00
2023-05-17T16:13:34.476Z,24.20
2023-05-17T16:16:02.389Z,40.20
2023-05-17T16:18:31.315Z,41.50
2023-05-17T16:21:02.979Z,29.60
2023-05-17T16:23:31.208Z,105.60
2023-05-17T16:25:58.859Z,23.40
2023-05-17T16:28:26.447Z,40.90
2023-05-17T16:30:54.412Z,117.80
2023-05-17T16:33:22.496Z,70.20
2023-05-17T16:35:50.323Z,56.10
2023-05-17T16:38:17.844Z,28.50
2023-05-17T16:40:46.473Z,20.00
2023-05-17T16:43:15.930Z,15.70
2023-05-17T16:45:45.169Z,14.40
2023-05-17T16:48:14.272Z,38.00
2023-05-17T16:50:42.354Z,148.90
2023-05-17T16:53:10.027Z,111.60
2023-05-17T16:55:39.835Z,26.80
2023-05-17T16:58:08.550Z,25.70
2023-05-17T17:00:36.172Z,23.60
2023-05-17T17:03:05.363Z,32.50
2023-05-17T17:05:35.011Z,27.30
2023-05-17T17:08:02.537Z,24.50
2023-05-17T17:10:30.207Z,16.80
2023-05-17T17:12:58.181Z,19.30
2023-05-17T17:15:25.714Z,21.70
2023-05-17T17:17:53.302Z,19.40
2023-05-17T17:20:20.898Z,14.60
2023-05-17T17:22:48.369Z,21.50
2023-05-17T17:25:16.289Z,15.50
2023-05-17T17:27:43.719Z,17.20
2023-05-17T17:30:12.755Z,14.10
2023-05-17T17:32:40.577Z,16.90
2023-05-17T17:35:09.302Z,15.70
2023-05-17T17:37:36.855Z,26.50
2023-05-17T17:40:05.128Z,17.50
2023-05-17T17:42:33.118Z,10.90
2023-05-17T17:45:01.218Z,16.00
2023-05-17T17:47:28.977Z,21.20
2023-05-17T17:49:56.918Z,19.00
2023-05-17T17:52:26.939Z,17.10
2023-05-17T17:54:54.501Z,17.30
2023-05-17T17:57:23.068Z,15.80
2023-05-17T17:59:50.967Z,13.70
2023-05-17T18:02:18.799Z,15.70
2023-05-17T18:04:46.708Z,17.10
2023-05-17T18:07:17.904Z,14.60
2023-05-17T18:09:45.639Z,14.80
2023-05-17T18:12:13.340Z,14.70
2023-05-17T18:14:41.068Z,15.40
2023-05-17T18:17:08.664Z,24.00
2023-05-17T18:19:36.360Z,21.10
2023-05-17T18:22:06.109Z,23.60
2023-05-17T18:24:33.686Z,22.00
2023-05-17T18:27:01.320Z,21.60
2023-05-17T18:29:29.068Z,16.10
2023-05-17T18:32:01.056Z,15.30
2023-05-17T18:34:28.693Z,10.10
2023-05-17T18:36:56.248Z,16.90
2023-05-17T18:39:23.804Z,17.10
2023-05-17T18:41:51.421Z,19.60
2023-05-17T18:44:20.105Z,17.50
2023-05-17T18:46:49.431Z,14.90
2023-05-17T18:49:21.015Z,15.10
2023-05-17T18:51:48.470Z,14.50
2023-05-17T18:54:15.992Z,15.80
2023-05-17T18:56:43.820Z,14.70
2023-05-17T18:59:11.300Z,10.50
2023-05-17T19:01:38.867Z,11.30
2023-05-17T19:04:06.610Z,14.50
2023-05-17T19:06:34.230Z,15.90
2023-05-17T19:09:01.771Z,18.20
2023-05-17T19:11:29.343Z,20.00
2023-05-17T19:13:56.864Z,15.30
2023-05-17T19:16:24.414Z,16.70
2023-05-17T19:18:51.937Z,16.80
2023-05-17T19:21:20.512Z,17.50
2023-05-17T19:23:48.037Z,20.90
2023-05-17T19:26:16.100Z,27.00
2023-05-17T19:28:43.952Z,21.20
2023-05-17T19:31:11.884Z,14.30
2023-05-17T19:33:40.556Z,13.90
2023-05-17T19:36:08.153Z,28.00
2023-05-17T19:38:35.782Z,17.80
2023-05-17T19:41:03.338Z,14.90
2023-05-17T19:43:32.123Z,11.70
2023-05-17T19:45:59.686Z,10.50
2023-05-17T19:48:27.638Z,12.60
2023-05-17T19:50:56.826Z,26.90
2023-05-17T19:53:24.920Z,17.30
2023-05-17T19:55:52.644Z,15.50
2023-05-17T19:58:20.207Z,24.00
2023-05-17T20:00:47.916Z,23.70
2023-05-17T20:03:15.576Z,22.30
2023-05-17T20:05:43.291Z,13.50
2023-05-17T20:08:10.775Z,20.30
2023-05-17T20:10:38.505Z,13.10
2023-05-17T20:13:06.067Z,15.80
2023-05-17T20:15:33.716Z,16.90
2023-05-17T20:18:01.339Z,15.50
2023-05-17T20:20:29.352Z,12.00
2023-05-17T20:22:57.175Z,44.90
2023-05-17T20:25:25.657Z,18.20
2023-05-17T20:27:53.320Z,12.00
2023-05-17T20:30:20.812Z,18.20
2023-05-17T20:32:48.423Z,30.10
2023-05-17T20:35:15.975Z,19.70
2023-05-17T20:37:43.529Z,16.90
2023-05-17T20:40:11.371Z,24.20
2023-05-17T20:42:40.241Z,26.40
2023-05-17T20:45:09.070Z,23.60
2023-05-17T20:47:36.866Z,24.80
2023-05-17T20:50:06.038Z,19.30
2023-05-17T20:52:39.460Z,32.50
2023-05-17T20:55:09.557Z,22.00
2023-05-17T20:57:37.127Z,14.30
2023-05-17T21:00:11.880Z,23.20
2023-05-17T21:02:39.604Z,13.00
2023-05-17T21:05:09.956Z,12.30
2023-05-17T21:07:40.163Z,31.50
2023-05-17T21:10:09.184Z,12.50
2023-05-17T21:12:36.697Z,14.40
2023-05-17T21:15:31.059Z,12.50
2023-05-17T21:17:53.448Z,15.90
2023-05-17T21:20:22.301Z,16.30
2023-05-17T21:22:52.318Z,18.40
2023-05-17T21:25:20.520Z,11.20
2023-05-17T21:27:48.045Z,18.60
2023-05-17T21:30:15.614Z,22.50
2023-05-17T21:32:43.232Z,19.60
2023-05-17T21:35:11.077Z,16.90
2023-05-17T21:37:39.971Z,14.90
2023-05-17T21:40:08.669Z,18.60
2023-05-17T21:42:36.318Z,15.00
2023-05-17T21:45:04.475Z,13.90
2023-05-17T21:47:32.136Z,14.80
2023-05-17T21:49:59.762Z,12.70
2023-05-17T21:52:27.436Z,11.40
2023-05-17T21:54:55.023Z,12.50
2023-05-17T21:57:22.593Z,18.40
2023-05-17T21:59:51.385Z,11.40
2023-05-17T22:02:19.171Z,14.70
2023-05-17T22:04:47.227Z,14.70
2023-05-17T22:07:15.762Z,12.60
2023-05-17T22:09:45.491Z,18.50
2023-05-17T22:12:13.179Z,13.70
2023-05-17T22:14:44.446Z,24.00
2023-05-17T22:17:12.144Z,11.90
2023-05-17T22:19:45.336Z,16.70
2023-05-17T22:22:13.199Z,11.90
2023-05-17T22:24:40.908Z,12.30
2023-05-17T22:27:08.410Z,13.40
2023-05-17T22:29:39.151Z,18.40
2023-05-17T22:32:07.258Z,13.20
2023-05-17T22:34:37.999Z,16.60
2023-05-17T22:37:10.218Z,13.40
2023-05-17T22:39:41.650Z,15.70
2023-05-17T22:42:09.370Z,20.50
2023-05-17T22:44:37.158Z,17.80
2023-05-17T22:47:05.251Z,26.90
2023-05-17T22:49:35.612Z,24.50
2023-05-17T22:52:07.825Z,18.20
2023-05-17T22:54:36.942Z,18.20
2023-05-17T22:57:05.882Z,14.60
2023-05-17T22:59:33.535Z,22.30
2023-05-17T23:02:02.327Z,16.70
2023-05-17T23:04:30.515Z,19.20
2023-05-17T23:07:03.039Z,18.10
2023-05-17T23:09:33.369Z,16.00
2023-05-17T23:12:05.523Z,12.30
2023-05-17T23:14:36.211Z,13.70
2023-05-17T23:17:04.824Z,16.30
2023-05-17T23:19:33.532Z,18.70
2023-05-17T23:22:03.192Z,14.60
2023-05-17T23:24:30.797Z,17.10
2023-05-17T23:26:58.980Z,14.80
2023-05-17T23:29:26.669Z,26.70
2023-05-17T23:31:54.331Z,21.80
2023-05-17T23:34:22.015Z,13.80
2023-05-17T23:36:49.619Z,17.60
2023-05-17T23:39:17.326Z,12.80
2023-05-17T23:41:44.945Z,15.00
2023-05-17T23:44:12.475Z,14.70
2023-05-17T23:46:40.136Z,13.60
2023-05-17T23:49:07.817Z,13.80
2023-05-17T23:51:36.996Z,12.90
2023-05-17T23:54:04.692Z,10.60
2023-05-17T23:56:32.313Z,14.60
2023-05-17T23:58:59.887Z,12.20
